首页
METAR-TAF:

METAR-TAF

机场 :

乌斯怀亚国际机场

乌斯怀亚, 阿根廷

纬度: 54-48S, 经度: 068-19W, 海拔: 16米

当前天气观测

该预报发布于31分钟前的15:00 UTC
风速24节,风向西南
温度 6°C
湿度 81%
气压 988 hPa
能见度10公里或以上
多云层高于3000英尺

METAR: SAWH 161500Z 23024KT 9999 BKN030 06/03 Q0988

时间: 12:31 (15:31 UTC)

预报

该预报发布于10小时和31分钟前的05:00 UTC
预报有效从16日的 06点(UTC)到 17日的 06点(UTC)
风速15节,风向
能见度10公里或以上
多云层高于3000英尺
多云层高于4000英尺
短暂存在
从 16日的 06点(UTC)到 16日的 13点(UTC)
风速12节,风向北转西北
成为
从 16日的 13点(UTC)到 16日的 15点(UTC)
风速20节,风向西
多云层高于2000英尺
散云层高于3000英尺
短暂存在
从 16日的 14点(UTC)到 16日的 21点(UTC)
能見度: 5000
阵雨
成为
从 17日的 00点(UTC)到 17日的 02点(UTC)
风速7节,风向多变

TAF: SAWH 160500Z 1606/1706 36015KT 9999 BKN030 BKN040 TX08/1618Z TN03/1610Z TEMPO 1606/1613 34012KT BECMG 1613/1615 26020KT BKN020 SCT030 TEMPO 1614/1621 5000 SHRA BECMG 1700/1702 VRB07KT

超过4000个机场的气象观测和天气预报(METAR&TAF报告)。

可查询的气象台以黄色和红色小点在地图上表示。

将鼠标移到小点上方,可查看气象台名称。

然后点击查看天气观测和预报。

如需切换地图:点击带黑十字的绿色按钮放大地图;点击带横线的绿色按钮缩小地图;或者点击绿色箭头查看邻近地区的地图。


METAR-TAF: